Погода Вулька-Ореяна 2 недели

Брестская область, Белоруссия

19 июля-01 августа
  • 19июля
    Сегодня
    +14°
    +25°
    Практически безоблачно
    ВремяПогодаТемператураВлажностьДавлениеВетер, м/сВероятность осадков
    00:00Ясно и безоблачно+19°C76 %755 мм2.4 м/с2 %
    03:00Ясно и безоблачно+17°C85 %755 мм2.5 м/с2 %
    06:00Ясно и безоблачно+16°C89 %755 мм2.8 м/с2 %
    09:00Практически безоблачно+20°C71 %755 мм2.8 м/с2 %
    12:00Практически безоблачно+23°C57 %755 мм3.8 м/с2 %
    15:00Практически безоблачно+25°C48 %754 мм4.3 м/с2 %
    18:00Ясно и безоблачно+25°C46 %753 мм4.5 м/с2 %
    21:00Ясно и безоблачно+21°C65 %753 мм2.1 м/с2 %
  • 20июля
    Суббота
    +13°
    +25°
    Облачно с прояснениями
    ВремяПогодаТемператураВлажностьДавлениеВетер, м/сВероятность осадков
    00:00Ясно и безоблачно+17°C79 %753 мм1.8 м/с2 %
    03:00Ясно и безоблачно+16°C84 %752 мм2.0 м/с2 %
    06:00Ясно и безоблачно+15°C88 %752 мм2.3 м/с2 %
    09:00Ясно и безоблачно+19°C69 %752 мм1.8 м/с2 %
    12:00Небольшая облачность+23°C53 %751 мм2.9 м/с2 %
    15:00Облачно с прояснениями+24°C46 %750 мм3.2 м/с2 %
    18:00Ясно и безоблачно+24°C43 %750 мм2.9 м/с2 %
    21:00Ясно и безоблачно+20°C68 %749 мм2.0 м/с2 %
  • 21июля
    Воскресенье
    +14°
    +26°
    Ясно и безоблачно
    ВремяПогодаТемператураВлажностьДавлениеВетер, м/сВероятность осадков
    00:00Ясно и безоблачно+16°C77 %749 мм2.2 м/с2 %
    03:00Небольшая облачность+15°C82 %749 мм2.0 м/с2 %
    06:00Облачно с прояснениями+13°C89 %749 мм1.4 м/с2 %
    09:00Облачно с прояснениями+20°C68 %749 мм0.2 м/с2 %
    12:00Небольшая облачность+24°C50 %749 мм0.2 м/с2 %
    15:00Ясно и безоблачно+25°C42 %748 мм0.4 м/с9 %
    18:00Ясно и безоблачно+26°C39 %747 мм1.3 м/с4 %
    21:00Ясно и безоблачно+23°C58 %748 мм1.7 м/с2 %
  • 22июля
    Понедельник
    +15°
    +28°
    Ясно и безоблачно
    ВремяПогодаТемператураВлажностьДавлениеВетер, м/сВероятность осадков
    00:00Ясно и безоблачно+18°C71 %748 мм1.9 м/с2 %
    03:00Ясно и безоблачно+17°C77 %748 мм2.0 м/с2 %
    06:00Ясно и безоблачно+15°C85 %748 мм1.6 м/с2 %
    09:00Ясно и безоблачно+22°C62 %748 мм1.1 м/с2 %
    12:00Ясно и безоблачно+25°C43 %748 мм1.8 м/с8 %
    15:00Ясно и безоблачно+26°C42 %748 мм1.9 м/с17 %
    18:00Ясно и безоблачно+28°C42 %748 мм2.5 м/с17 %
    21:00Ясно и безоблачно+24°C56 %748 мм2.1 м/с8 %
  • 23июля
    Вторник
    +17°
    +28°
    Практически безоблачно
    ВремяПогодаТемператураВлажностьДавлениеВетер, м/сВероятность осадков
    00:00Ясно и безоблачно+20°C66 %749 мм2.1 м/с3 %
    03:00Ясно и безоблачно+17°C82 %748 мм2.0 м/с2 %
    06:00Ясно и безоблачно+16°C89 %748 мм1.7 м/с7 %
    09:00Практически безоблачно+22°C61 %749 мм0.6 м/с11 %
    12:00Практически безоблачно+25°C48 %749 мм1.0 м/с25 %
    15:00Практически безоблачно+27°C46 %748 мм1.7 м/с35 %
    18:00Небольшая облачность+27°C45 %748 мм2.2 м/с29 %
    21:00Ясно и безоблачно+23°C67 %748 мм1.7 м/с18 %
Мы используем cookies
Соглашаюсь